createdAt,value
2019-03-22T00:01:15.738Z,45.94
2019-03-22T00:04:22.186Z,47.06
2019-03-22T00:07:28.497Z,46.25
2019-03-22T00:10:34.771Z,45.65
2019-03-22T00:13:41.073Z,45.28
2019-03-22T00:16:47.368Z,46.27
2019-03-22T00:19:53.636Z,45.84
2019-03-22T00:22:59.921Z,45.84
2019-03-22T00:26:06.331Z,45.70
2019-03-22T00:29:12.649Z,45.26
2019-03-22T00:32:18.986Z,44.92
2019-03-22T00:35:25.277Z,45.88
2019-03-22T00:38:31.612Z,46.16
2019-03-22T00:41:37.935Z,45.76
2019-03-22T00:44:44.359Z,46.12
2019-03-22T00:47:50.745Z,45.14
2019-03-22T00:50:57.030Z,45.42
2019-03-22T00:54:03.412Z,45.21
2019-03-22T00:57:09.680Z,45.78
2019-03-22T01:00:16.256Z,45.41
2019-03-22T01:03:22.532Z,45.02
2019-03-22T01:06:28.808Z,44.96
2019-03-22T01:09:35.044Z,45.35
2019-03-22T01:12:41.734Z,44.69
2019-03-22T01:15:47.992Z,44.70
2019-03-22T01:18:54.346Z,44.49
2019-03-22T01:22:00.603Z,44.51
2019-03-22T01:25:07.736Z,44.77
2019-03-22T01:28:14.051Z,44.88
2019-03-22T01:31:21.480Z,44.64
2019-03-22T01:34:28.751Z,44.49
2019-03-22T01:37:35.163Z,45.01
2019-03-22T01:40:41.498Z,44.90
2019-03-22T01:43:47.903Z,44.20
2019-03-22T01:46:54.223Z,44.65
2019-03-22T01:50:00.532Z,45.28
2019-03-22T01:53:07.100Z,45.59
2019-03-22T01:56:13.365Z,45.40
2019-03-22T01:59:19.707Z,45.09
2019-03-22T02:02:25.964Z,45.28
2019-03-22T02:05:32.349Z,45.70
2019-03-22T02:08:38.632Z,46.64
2019-03-22T02:11:44.968Z,46.19
2019-03-22T02:14:51.330Z,45.95
2019-03-22T02:17:57.650Z,46.42
2019-03-22T02:21:04.193Z,45.92
2019-03-22T02:24:10.498Z,45.91
2019-03-22T02:27:16.932Z,45.38
2019-03-22T02:30:23.326Z,45.53
2019-03-22T02:33:29.731Z,45.36
2019-03-22T02:36:35.999Z,45.62
2019-03-22T02:39:42.489Z,46.29
2019-03-22T02:42:48.939Z,46.18
2019-03-22T02:45:55.207Z,46.06
2019-03-22T02:49:01.505Z,46.92
2019-03-22T02:52:07.852Z,46.86
2019-03-22T02:55:14.310Z,46.56
2019-03-22T02:58:21.478Z,46.01
2019-03-22T03:01:28.901Z,46.37
2019-03-22T03:04:35.202Z,48.00
2019-03-22T03:07:41.478Z,46.64
2019-03-22T03:10:47.827Z,45.79
2019-03-22T03:13:54.141Z,45.79
2019-03-22T03:17:00.668Z,45.81
2019-03-22T03:20:07.819Z,46.22
2019-03-22T03:23:14.071Z,46.51
2019-03-22T03:26:20.442Z,46.07
2019-03-22T03:29:26.753Z,46.35
2019-03-22T03:32:33.015Z,47.29
2019-03-22T03:35:39.494Z,47.59
2019-03-22T03:38:45.889Z,47.83
2019-03-22T03:41:52.233Z,46.56
2019-03-22T03:44:59.522Z,46.43
2019-03-22T03:48:07.220Z,46.72
2019-03-22T03:51:13.545Z,46.35
2019-03-22T03:54:19.826Z,47.17
2019-03-22T03:57:26.113Z,46.27
2019-03-22T04:00:32.521Z,45.87
2019-03-22T04:03:38.856Z,45.49
2019-03-22T04:06:45.111Z,46.49
2019-03-22T04:09:51.409Z,47.51
2019-03-22T04:12:57.661Z,49.04
2019-03-22T04:16:04.055Z,48.97
2019-03-22T04:19:10.533Z,50.28
2019-03-22T04:22:16.870Z,48.67
2019-03-22T04:25:23.173Z,50.49
2019-03-22T04:28:29.507Z,49.17
2019-03-22T04:31:35.887Z,48.98
2019-03-22T04:34:42.285Z,49.02
2019-03-22T04:37:48.632Z,48.54
2019-03-22T04:40:55.043Z,48.68
2019-03-22T04:44:01.477Z,47.45
2019-03-22T04:47:09.710Z,46.36
2019-03-22T04:50:16.280Z,48.33
2019-03-22T04:53:24.894Z,47.35
2019-03-22T04:56:34.572Z,46.42
2019-03-22T04:59:43.660Z,47.16
2019-03-22T05:02:51.041Z,46.30
2019-03-22T05:05:59.969Z,46.54
2019-03-22T05:09:09.820Z,47.81
2019-03-22T05:12:19.024Z,47.68
2019-03-22T05:15:26.289Z,49.25
2019-03-22T05:18:34.353Z,47.24
2019-03-22T05:21:41.407Z,48.36
2019-03-22T05:24:49.484Z,47.00
2019-03-22T05:27:57.696Z,46.45
2019-03-22T05:31:46.142Z,46.30
2019-03-22T05:34:52.417Z,45.59
2019-03-22T05:37:59.021Z,45.77
2019-03-22T05:41:05.315Z,45.55
2019-03-22T05:44:11.588Z,44.93
2019-03-22T05:47:17.907Z,44.59
2019-03-22T05:50:24.221Z,44.03
2019-03-22T05:53:30.539Z,43.71
2019-03-22T05:56:36.871Z,43.56
2019-03-22T05:59:43.258Z,44.17
2019-03-22T06:02:49.589Z,45.24
2019-03-22T06:05:55.973Z,44.63
2019-03-22T06:09:02.359Z,44.68
2019-03-22T06:12:08.882Z,45.43
2019-03-22T06:15:15.539Z,45.67
2019-03-22T06:18:22.001Z,46.19
2019-03-22T06:21:28.413Z,45.10
2019-03-22T06:24:34.682Z,44.82
2019-03-22T06:27:40.968Z,44.41
2019-03-22T06:30:47.518Z,44.38
2019-03-22T06:33:53.800Z,45.10
2019-03-22T06:37:01.144Z,45.16
2019-03-22T06:40:07.755Z,42.59
2019-03-22T06:43:14.190Z,42.68
2019-03-22T06:46:20.545Z,40.48
2019-03-22T06:49:26.832Z,40.01
2019-03-22T06:52:33.102Z,39.66
2019-03-22T06:55:39.492Z,38.66
2019-03-22T06:58:45.804Z,37.87
2019-03-22T07:01:52.075Z,36.96
2019-03-22T07:04:58.394Z,37.85
2019-03-22T07:08:04.669Z,36.70
2019-03-22T07:11:10.964Z,36.25
2019-03-22T07:14:17.317Z,36.11
2019-03-22T07:17:24.055Z,35.90
2019-03-22T07:20:31.520Z,35.98
2019-03-22T07:23:37.797Z,35.77
2019-03-22T07:26:44.067Z,35.16
2019-03-22T07:29:50.384Z,34.72
2019-03-22T07:32:56.767Z,35.47
2019-03-22T07:36:03.059Z,34.84
2019-03-22T07:39:10.034Z,34.65
2019-03-22T07:42:17.634Z,35.03
2019-03-22T07:45:24.082Z,34.84
2019-03-22T07:48:30.371Z,33.38
2019-03-22T07:51:36.704Z,34.22
2019-03-22T07:54:42.983Z,33.25
2019-03-22T07:57:49.384Z,34.60
2019-03-22T08:00:55.801Z,33.86
2019-03-22T08:04:02.196Z,33.60
2019-03-22T08:07:08.455Z,33.15
2019-03-22T08:10:14.958Z,32.83
2019-03-22T08:13:22.305Z,33.07
2019-03-22T08:16:28.644Z,33.64
2019-03-22T08:19:34.913Z,33.10
2019-03-22T08:22:41.290Z,32.86
2019-03-22T08:25:47.656Z,32.49
2019-03-22T08:28:53.927Z,32.19
2019-03-22T08:32:00.321Z,32.44
2019-03-22T08:35:06.740Z,33.63
2019-03-22T08:38:13.144Z,33.06
2019-03-22T08:41:19.512Z,32.11
2019-03-22T08:44:25.828Z,32.02
2019-03-22T08:47:34.123Z,31.02
2019-03-22T08:50:40.175Z,32.27
2019-03-22T08:53:55.094Z,31.22
2019-03-22T08:56:54.588Z,31.61
2019-03-22T09:00:00.926Z,32.49
2019-03-22T09:03:07.491Z,30.85
2019-03-22T09:06:15.029Z,32.15
2019-03-22T09:09:21.307Z,30.42
2019-03-22T09:12:27.873Z,30.78
2019-03-22T09:15:41.025Z,30.36
2019-03-22T09:18:42.090Z,30.40
2019-03-22T09:21:48.463Z,29.97
2019-03-22T09:24:54.868Z,29.75
2019-03-22T09:28:01.271Z,29.58
2019-03-22T09:31:11.187Z,30.00
2019-03-22T09:34:15.544Z,29.81
2019-03-22T09:37:22.039Z,30.35
2019-03-22T09:40:28.289Z,29.96
2019-03-22T09:43:34.677Z,30.36
2019-03-22T09:46:40.933Z,31.01
2019-03-22T09:49:47.229Z,30.52
2019-03-22T09:52:53.562Z,29.07
2019-03-22T09:55:59.853Z,29.13
2019-03-22T09:59:06.523Z,29.30
2019-03-22T10:02:12.960Z,29.38
2019-03-22T10:05:19.478Z,30.08
2019-03-22T10:08:25.826Z,29.36
2019-03-22T10:11:32.164Z,30.28
2019-03-22T10:14:38.572Z,28.63
2019-03-22T10:17:44.814Z,28.34
2019-03-22T10:20:51.146Z,28.91
2019-03-22T10:23:57.389Z,30.76
2019-03-22T10:27:05.323Z,32.40
2019-03-22T10:30:11.973Z,30.56
2019-03-22T10:33:22.982Z,30.40
2019-03-22T10:36:26.359Z,29.31
2019-03-22T10:39:32.764Z,28.63
2019-03-22T10:42:39.170Z,28.45
2019-03-22T10:45:45.426Z,28.13
2019-03-22T10:48:51.701Z,27.81
2019-03-22T10:51:58.347Z,27.80
2019-03-22T10:55:23.450Z,27.49
2019-03-22T10:58:20.726Z,28.52
2019-03-22T11:01:21.299Z,28.14
2019-03-22T11:04:27.663Z,27.82
2019-03-22T11:07:34.165Z,27.79
2019-03-22T11:10:40.636Z,27.56
2019-03-22T11:13:46.945Z,27.25
2019-03-22T11:16:53.216Z,27.20
2019-03-22T11:19:59.538Z,27.57
2019-03-22T11:23:06.131Z,28.01
2019-03-22T11:26:12.534Z,28.41
2019-03-22T11:29:18.828Z,28.49
2019-03-22T11:32:25.221Z,27.86
2019-03-22T11:35:31.643Z,27.74
2019-03-22T11:38:38.005Z,27.19
2019-03-22T11:41:44.370Z,26.97
2019-03-22T11:44:50.861Z,27.29
2019-03-22T11:47:57.844Z,27.29
2019-03-22T11:51:04.540Z,26.45
2019-03-22T11:54:10.911Z,26.64
2019-03-22T11:57:17.252Z,27.10
2019-03-22T12:00:24.517Z,26.66
2019-03-22T12:03:30.872Z,26.02
2019-03-22T12:06:37.497Z,26.29
2019-03-22T12:09:43.835Z,26.13
2019-03-22T12:12:50.533Z,25.86
2019-03-22T12:15:57.028Z,26.26
2019-03-22T12:19:03.526Z,26.04
2019-03-22T12:22:09.776Z,26.40
2019-03-22T12:25:18.048Z,26.16
2019-03-22T12:28:24.413Z,26.17
2019-03-22T12:31:31.787Z,25.79
2019-03-22T12:34:38.122Z,26.02
2019-03-22T12:37:44.862Z,26.03
2019-03-22T12:40:51.116Z,26.00
2019-03-22T12:43:57.387Z,25.08
2019-03-22T12:47:03.843Z,25.31
2019-03-22T12:50:13.351Z,25.63
2019-03-22T12:53:19.777Z,25.51
2019-03-22T12:56:27.165Z,24.89
2019-03-22T12:59:33.429Z,24.01
2019-03-22T13:02:42.390Z,24.14
2019-03-22T13:05:48.942Z,23.98
2019-03-22T13:08:55.202Z,24.04
2019-03-22T13:12:01.496Z,24.03
2019-03-22T13:15:08.424Z,24.39
2019-03-22T13:18:14.754Z,24.30
2019-03-22T13:21:21.299Z,24.36
2019-03-22T13:24:27.558Z,24.92
2019-03-22T13:27:33.852Z,24.82
2019-03-22T13:30:40.116Z,24.63
2019-03-22T13:33:46.484Z,24.34
2019-03-22T13:36:52.792Z,24.24
2019-03-22T13:39:59.218Z,24.18
2019-03-22T13:43:05.607Z,25.68
2019-03-22T13:46:11.979Z,26.06
2019-03-22T13:49:18.366Z,26.14
2019-03-22T13:52:24.687Z,27.38
2019-03-22T13:55:31.067Z,27.25
2019-03-22T13:58:37.359Z,27.14
2019-03-22T14:01:44.716Z,27.43
2019-03-22T14:04:51.067Z,27.72
2019-03-22T14:07:57.418Z,28.02
2019-03-22T14:11:03.715Z,28.26
2019-03-22T14:14:10.074Z,28.83
2019-03-22T14:17:17.594Z,28.31
2019-03-22T14:20:23.946Z,28.38
2019-03-22T14:23:30.231Z,28.94
2019-03-22T14:26:36.774Z,28.75
2019-03-22T14:29:43.051Z,28.60
2019-03-22T14:32:49.449Z,28.19
2019-03-22T14:35:55.724Z,28.74
2019-03-22T14:39:02.079Z,28.74
2019-03-22T14:42:10.140Z,28.91
2019-03-22T14:45:16.720Z,29.02
2019-03-22T14:48:24.088Z,28.59
2019-03-22T14:51:30.373Z,28.60
2019-03-22T14:54:36.770Z,28.66
2019-03-22T14:57:48.978Z,28.58
2019-03-22T15:00:51.282Z,29.57
2019-03-22T15:03:57.554Z,29.99
2019-03-22T15:07:03.847Z,30.23
2019-03-22T15:10:10.539Z,30.94
2019-03-22T15:13:17.466Z,30.98
2019-03-22T15:16:58.751Z,30.61
2019-03-22T15:20:27.340Z,31.34
2019-03-22T15:24:04.791Z,32.12
2019-03-22T15:27:40.303Z,32.54
2019-03-22T15:31:04.254Z,32.47
2019-03-22T15:34:39.601Z,32.26
2019-03-22T15:37:59.824Z,32.26
2019-03-22T15:41:06.192Z,33.29
2019-03-22T15:44:12.818Z,32.84
2019-03-22T15:47:19.190Z,33.31
2019-03-22T15:50:25.759Z,33.46
2019-03-22T15:53:32.160Z,33.55
2019-03-22T15:56:38.576Z,33.42
2019-03-22T15:59:44.945Z,33.59
2019-03-22T16:02:51.321Z,33.61
2019-03-22T16:05:57.780Z,33.68
2019-03-22T16:09:04.795Z,34.04
2019-03-22T16:12:11.246Z,34.06
2019-03-22T16:15:17.987Z,33.77
2019-03-22T16:18:24.313Z,34.14
2019-03-22T16:21:30.664Z,34.53
2019-03-22T16:24:36.925Z,34.81
2019-03-22T16:27:46.115Z,34.71
2019-03-22T16:30:52.593Z,34.71
2019-03-22T16:33:59.008Z,34.53
2019-03-22T16:37:05.703Z,34.77
2019-03-22T16:40:13.197Z,34.86
2019-03-22T16:43:19.751Z,34.92
2019-03-22T16:46:26.280Z,35.02
2019-03-22T16:49:32.894Z,35.13
2019-03-22T16:52:39.394Z,34.99
2019-03-22T16:55:45.995Z,34.86
2019-03-22T16:58:52.620Z,35.40
2019-03-22T17:01:59.090Z,35.08
2019-03-22T17:05:06.115Z,35.11
2019-03-22T17:08:12.757Z,35.40
2019-03-22T17:11:19.216Z,35.25
2019-03-22T17:14:25.669Z,35.42
2019-03-22T17:17:32.164Z,35.47
2019-03-22T17:20:38.621Z,35.63
2019-03-22T17:23:45.321Z,36.00
2019-03-22T17:26:51.859Z,36.47
2019-03-22T17:29:58.433Z,37.01
2019-03-22T17:33:04.956Z,36.93
2019-03-22T17:36:11.501Z,37.82
2019-03-22T17:39:17.953Z,37.86
2019-03-22T17:42:24.543Z,38.25
2019-03-22T17:45:30.994Z,38.13
2019-03-22T17:48:37.513Z,38.34
2019-03-22T17:51:44.096Z,38.39
2019-03-22T17:54:50.677Z,38.74
2019-03-22T17:57:57.164Z,38.84
2019-03-22T18:01:03.729Z,38.88
2019-03-22T18:04:11.408Z,39.16
2019-03-22T18:07:17.977Z,39.35
2019-03-22T18:10:24.537Z,39.12
2019-03-22T18:13:31.090Z,39.33
2019-03-22T18:16:37.618Z,39.46
2019-03-22T18:19:44.076Z,39.00
2019-03-22T18:22:50.695Z,39.19
2019-03-22T18:25:57.259Z,39.28
2019-03-22T18:29:03.737Z,39.50
2019-03-22T18:32:10.196Z,39.51
2019-03-22T18:35:16.794Z,39.62
2019-03-22T18:38:23.303Z,39.14
2019-03-22T18:41:29.737Z,38.80
2019-03-22T18:44:36.329Z,39.15
2019-03-22T18:47:42.951Z,39.10
2019-03-22T18:50:56.829Z,38.99
2019-03-22T18:53:57.627Z,38.64
2019-03-22T18:57:04.122Z,38.60
2019-03-22T19:00:11.815Z,38.19
2019-03-22T19:03:18.397Z,37.98
2019-03-22T19:06:24.917Z,37.82
2019-03-22T19:09:31.390Z,37.51
2019-03-22T19:12:37.922Z,37.83
2019-03-22T19:15:44.371Z,37.67
2019-03-22T19:18:50.872Z,38.27
2019-03-22T19:21:57.305Z,37.86
2019-03-22T19:25:03.930Z,38.22
2019-03-22T19:28:10.490Z,38.58
2019-03-22T19:31:17.551Z,38.70
2019-03-22T19:35:06.824Z,39.00
2019-03-22T19:38:48.649Z,38.72
2019-03-22T19:41:55.175Z,38.64
2019-03-22T19:45:01.645Z,38.43
2019-03-22T19:48:08.134Z,38.56
2019-03-22T19:51:14.605Z,38.46
2019-03-22T19:54:21.080Z,38.76
2019-03-22T19:57:27.513Z,38.75
2019-03-22T20:00:33.953Z,38.81
2019-03-22T20:03:40.408Z,38.83
2019-03-22T20:06:46.851Z,39.02
2019-03-22T20:09:53.351Z,39.06
2019-03-22T20:12:59.922Z,39.31
2019-03-22T20:16:07.109Z,39.56
2019-03-22T20:19:13.685Z,39.98
2019-03-22T20:22:20.125Z,40.25
2019-03-22T20:25:26.584Z,40.68
2019-03-22T20:28:33.042Z,41.10
2019-03-22T20:31:39.676Z,41.26
2019-03-22T20:34:47.131Z,41.33
2019-03-22T20:37:53.565Z,45.11
2019-03-22T20:41:00.055Z,42.97
2019-03-22T20:44:06.669Z,41.95
2019-03-22T20:47:13.252Z,41.81
2019-03-22T20:50:19.852Z,41.44
2019-03-22T20:53:26.427Z,42.12
2019-03-22T20:56:32.902Z,41.60
2019-03-22T20:59:39.336Z,43.32
2019-03-22T21:02:45.846Z,42.96
2019-03-22T21:05:52.405Z,42.43
2019-03-22T21:08:58.847Z,41.88
2019-03-22T21:12:05.393Z,41.91
2019-03-22T21:15:11.943Z,41.77
2019-03-22T21:18:18.295Z,41.83
2019-03-22T21:21:35.665Z,42.13
2019-03-22T21:24:32.875Z,43.29
2019-03-22T21:27:39.226Z,42.52
2019-03-22T21:30:45.533Z,42.38
2019-03-22T21:33:51.887Z,41.79
2019-03-22T21:36:58.205Z,41.44
2019-03-22T21:40:04.758Z,41.54
2019-03-22T21:43:11.103Z,41.97
2019-03-22T21:46:17.356Z,42.74
2019-03-22T21:49:23.775Z,43.16
2019-03-22T21:52:30.104Z,43.26
2019-03-22T21:55:36.434Z,44.58
2019-03-22T21:58:42.807Z,44.07
2019-03-22T22:01:49.115Z,44.02
2019-03-22T22:04:55.483Z,43.58
2019-03-22T22:08:01.756Z,43.77
2019-03-22T22:11:08.184Z,43.72
2019-03-22T22:14:14.666Z,43.67
2019-03-22T22:17:21.035Z,43.40
2019-03-22T22:20:29.145Z,43.30
2019-03-22T22:23:35.341Z,43.48
2019-03-22T22:26:41.613Z,43.45
2019-03-22T22:29:47.924Z,43.64
2019-03-22T22:32:54.307Z,43.85
2019-03-22T22:36:00.583Z,43.77
2019-03-22T22:39:08.007Z,44.06
2019-03-22T22:42:15.376Z,44.09
2019-03-22T22:45:21.667Z,44.23
2019-03-22T22:48:28.045Z,44.50
2019-03-22T22:51:34.393Z,44.63
2019-03-22T22:54:40.671Z,44.95
2019-03-22T22:57:47.105Z,45.01
2019-03-22T23:00:53.589Z,45.55
2019-03-22T23:04:01.459Z,45.00
2019-03-22T23:07:08.031Z,44.97
2019-03-22T23:10:14.737Z,44.52
2019-03-22T23:13:20.998Z,44.40
2019-03-22T23:16:27.260Z,44.17
2019-03-22T23:19:33.783Z,44.18
2019-03-22T23:22:40.240Z,44.01
2019-03-22T23:25:46.526Z,44.17
2019-03-22T23:28:52.824Z,44.41
2019-03-22T23:31:59.121Z,44.13
2019-03-22T23:35:06.564Z,43.89
2019-03-22T23:38:12.861Z,44.00
2019-03-22T23:41:19.181Z,44.06
2019-03-22T23:44:25.468Z,44.01
2019-03-22T23:47:31.806Z,43.78
2019-03-22T23:50:38.130Z,43.56
2019-03-22T23:53:44.382Z,43.49
2019-03-22T23:56:50.646Z,43.72
2019-03-22T23:59:56.964Z,44.76
